EGXW/WTN METAR and TAF weather

Enter ICAO airport designator
Station Type Date Time Source
EGXW METAR 2019/07/18 10:50 UTC NOAA

EGXW 181050Z 28006KT 9999 FEW030 SCT055 19/12 Q1008 NOSIG RMK BLU BLU


Station Type Date Time Source
EGXW Decoded METAR 2019/07/18 10:50 UTC NOAA

Waddington, United Kingdom (EGXW) 53-10N 000-31W 0M
Jul 18, 2019 - 06:50 AM EDT / 2019.07.18 1050 UTC
Wind: from the W (280 degrees) at 7 MPH (6 KT):0
Visibility: greater than 7 mile(s):0
Sky conditions: partly cloudy
Temperature: 66 F (19 C)
Dew Point: 53 F (12 C)
Relative Humidity: 63%
Pressure (altimeter): 29.77 in. Hg (1008 hPa)
ob: EGXW 181050Z 28006KT 9999 FEW030 SCT055 19/12 Q1008 NOSIG RMK BLU BLU
cycle: 11

Station Type Date Time Source
EGXW TAF 2019/07/18 12:54 UTC NOAA

TAF EGXW 181045Z 1812/1906 27010KT 9999 SCT030

Example: see airport list